createdAt,value
2019-01-09T09:40:31.417Z,13.17
2019-01-09T09:45:27.011Z,14.03
2019-01-09T09:50:22.963Z,13.90
2019-01-09T09:55:18.585Z,13.53
2019-01-09T10:05:19.396Z,17.53
2019-01-09T10:10:15.306Z,22.07
2019-01-09T10:15:11.919Z,19.27
2019-01-09T10:30:15.876Z,21.83
2019-01-09T10:35:11.647Z,21.87
2019-01-09T10:40:08.497Z,20.40
2019-01-09T10:45:06.012Z,13.80
2019-01-09T10:50:01.949Z,15.33
2019-01-09T10:54:57.632Z,10.07
2019-01-09T10:59:53.213Z,8.10
2019-01-09T11:04:48.878Z,1.97
2019-01-09T11:09:44.534Z,1.10
2019-01-09T11:14:40.205Z,1.63
2019-01-09T11:19:35.826Z,1.60
2019-01-09T11:24:31.451Z,1.57
2019-01-09T11:29:27.199Z,1.70
2019-01-09T11:34:22.836Z,1.03
2019-01-09T11:39:18.517Z,1.70
2019-01-09T11:44:14.087Z,1.10
2019-01-09T11:49:09.738Z,1.10
2019-01-09T11:54:05.525Z,1.30
2019-01-09T11:59:01.102Z,1.00
2019-01-09T12:03:56.681Z,1.50
2019-01-09T12:08:52.327Z,1.60
2019-01-09T12:13:47.909Z,1.43
2019-01-09T12:18:43.615Z,1.50
2019-01-09T12:23:39.213Z,1.20
2019-01-09T12:28:34.899Z,1.20
2019-01-09T12:33:30.596Z,1.33
2019-01-09T12:38:26.245Z,1.20
2019-01-09T12:43:21.915Z,1.20
2019-01-09T12:48:17.502Z,1.40
2019-01-09T12:53:13.066Z,1.83
2019-01-09T12:58:08.814Z,1.50
2019-01-09T13:03:04.601Z,1.37
2019-01-09T13:08:00.637Z,1.50
2019-01-09T13:12:56.319Z,1.30
2019-01-09T13:17:51.998Z,1.80
2019-01-09T13:22:47.658Z,1.40
2019-01-09T13:27:43.344Z,1.60
2019-01-09T13:32:39.017Z,2.60
2019-01-09T13:37:34.677Z,2.67
2019-01-09T13:42:30.343Z,3.23
2019-01-09T13:47:25.994Z,2.30
2019-01-09T13:52:21.659Z,1.53
2019-01-09T13:57:17.313Z,1.63
2019-01-09T14:02:12.994Z,5.07
2019-01-09T14:07:10.485Z,2.50
2019-01-09T14:12:06.356Z,2.47
2019-01-09T14:17:01.954Z,2.90
2019-01-09T14:21:57.613Z,2.87
2019-01-09T14:26:53.274Z,2.73
2019-01-09T14:31:48.942Z,2.23
2019-01-09T14:36:44.575Z,2.73
2019-01-09T14:41:40.204Z,2.40
2019-01-09T14:46:35.858Z,3.07
2019-01-09T14:51:31.529Z,4.57
2019-01-09T14:56:27.237Z,5.80
2019-01-09T15:01:22.917Z,7.17
2019-01-09T15:06:19.027Z,8.13
2019-01-09T15:11:14.726Z,8.00
2019-01-09T15:16:10.394Z,7.80
2019-01-09T15:21:06.083Z,7.47
2019-01-09T15:26:02.493Z,6.57
2019-01-09T15:30:59.250Z,6.90
2019-01-09T15:35:55.389Z,7.03
2019-01-09T15:40:51.088Z,6.57
2019-01-09T15:45:46.787Z,7.53
2019-01-09T15:50:42.609Z,8.53
2019-01-09T15:55:38.354Z,14.43
2019-01-09T16:00:39.537Z,6.90
2019-01-09T16:05:36.481Z,7.60
2019-01-09T16:10:32.130Z,7.97
2019-01-09T16:15:27.909Z,7.53
2019-01-09T16:20:23.698Z,9.43
2019-01-09T16:25:19.518Z,11.07
2019-01-09T16:30:21.926Z,10.03
2019-01-09T16:35:17.501Z,11.60
2019-01-09T16:40:13.419Z,10.97
2019-01-09T16:45:10.386Z,11.93
2019-01-09T16:50:07.102Z,14.37
2019-01-09T16:55:02.734Z,10.77
2019-01-09T16:59:58.674Z,8.80
2019-01-09T17:04:54.358Z,11.43
2019-01-09T17:09:50.422Z,41.17
2019-01-09T17:14:46.101Z,44.23
